createdAt,value
2022-11-12T00:01:48.065Z,10.20
2022-11-12T00:07:08.797Z,10.20
2022-11-12T00:12:29.624Z,10.30
2022-11-12T00:17:50.292Z,10.30
2022-11-12T00:23:11.189Z,10.20
2022-11-12T00:28:37.373Z,10.10
2022-11-12T00:33:59.094Z,10.00
2022-11-12T00:39:19.769Z,9.40
2022-11-12T00:44:40.568Z,9.60
2022-11-12T00:50:01.545Z,9.60
2022-11-12T00:55:22.328Z,9.30
2022-11-12T01:00:43.289Z,9.10
2022-11-12T01:06:10.024Z,9.60
2022-11-12T01:11:30.787Z,9.50
2022-11-12T01:16:51.930Z,9.70
2022-11-12T01:22:12.585Z,10.80
2022-11-12T01:27:34.052Z,9.60
2022-11-12T01:32:54.656Z,10.00
2022-11-12T01:38:15.505Z,10.10
2022-11-12T01:43:36.669Z,10.00
2022-11-12T01:49:00.787Z,10.00
2022-11-12T01:54:22.748Z,10.10
2022-11-12T01:59:47.758Z,9.80
2022-11-12T02:05:11.578Z,9.60
2022-11-12T02:10:32.624Z,9.50
2022-11-12T02:15:53.608Z,9.30
2022-11-12T02:21:14.239Z,9.50
2022-11-12T02:26:38.757Z,9.60
2022-11-12T02:31:59.911Z,9.10
2022-11-12T02:37:20.771Z,8.70
2022-11-12T02:42:41.370Z,9.30
2022-11-12T02:48:02.371Z,9.50
2022-11-12T02:53:23.144Z,9.50
2022-11-12T02:58:43.699Z,9.90
2022-11-12T03:04:04.449Z,9.70
2022-11-12T03:09:25.217Z,9.60
2022-11-12T03:14:46.211Z,9.20
2022-11-12T03:20:07.236Z,9.10
2022-11-12T03:25:29.056Z,8.70
2022-11-12T03:30:49.716Z,8.40
2022-11-12T03:36:10.384Z,8.60
2022-11-12T03:41:31.143Z,9.10
2022-11-12T03:46:51.860Z,9.30
2022-11-12T03:52:12.758Z,9.30
2022-11-12T03:57:33.585Z,9.30
2022-11-12T04:02:54.975Z,8.80
2022-11-12T04:08:37.398Z,9.20
2022-11-12T04:13:58.863Z,9.50
2022-11-12T04:19:38.454Z,9.70
2022-11-12T04:25:37.796Z,9.50
2022-11-12T04:30:58.421Z,9.50
2022-11-12T04:36:19.197Z,9.30
2022-11-12T04:41:58.335Z,9.00
2022-11-12T04:47:19.377Z,9.30
2022-11-12T04:52:40.706Z,9.70
2022-11-12T04:58:01.684Z,9.00
2022-11-12T05:03:22.858Z,9.10
2022-11-12T05:08:43.676Z,8.70
2022-11-12T05:14:04.575Z,8.40
2022-11-12T05:19:25.302Z,8.10
2022-11-12T05:24:46.666Z,9.30
2022-11-12T05:30:08.121Z,8.10
2022-11-12T05:35:28.932Z,8.20
2022-11-12T05:40:49.610Z,8.20
2022-11-12T05:46:11.055Z,8.30
2022-11-12T05:51:32.103Z,8.40
2022-11-12T05:56:55.906Z,8.50
2022-11-12T06:02:16.767Z,8.60
2022-11-12T06:07:37.443Z,8.70
2022-11-12T06:12:59.588Z,8.50
2022-11-12T06:18:21.031Z,8.70
2022-11-12T06:23:41.951Z,8.90
2022-11-12T06:29:02.866Z,9.00
2022-11-12T06:34:23.389Z,9.00
2022-11-12T06:39:44.203Z,8.70
2022-11-12T06:45:05.380Z,8.90
2022-11-12T06:50:26.038Z,8.80
2022-11-12T06:55:46.664Z,8.20
2022-11-12T07:01:12.979Z,7.30
2022-11-12T07:06:34.746Z,7.20
2022-11-12T07:11:55.717Z,6.90
2022-11-12T07:17:16.503Z,6.70
2022-11-12T07:22:37.140Z,6.50
2022-11-12T07:27:58.098Z,6.60
2022-11-12T07:33:19.063Z,6.70
2022-11-12T07:38:41.268Z,6.90
2022-11-12T07:44:02.292Z,6.90
2022-11-12T07:49:22.998Z,7.40
2022-11-12T07:54:44.121Z,7.20
2022-11-12T08:00:05.566Z,6.90
2022-11-12T08:05:26.783Z,7.10
2022-11-12T08:10:47.520Z,7.20
2022-11-12T08:16:08.957Z,7.30
2022-11-12T08:21:29.785Z,7.50
2022-11-12T08:26:50.539Z,7.50
2022-11-12T08:32:11.589Z,7.50
2022-11-12T08:37:32.483Z,7.20
2022-11-12T08:43:03.813Z,7.40
2022-11-12T08:48:25.436Z,7.60
2022-11-12T08:53:46.649Z,8.00
2022-11-12T08:59:07.578Z,8.30
2022-11-12T09:04:28.713Z,8.00
2022-11-12T09:09:49.509Z,8.20
2022-11-12T09:15:36.202Z,8.30
2022-11-12T09:20:51.153Z,8.10
2022-11-12T09:26:11.997Z,8.10
2022-11-12T09:31:33.057Z,8.30
2022-11-12T09:36:55.119Z,8.70
2022-11-12T09:42:22.323Z,8.70
2022-11-12T09:47:54.218Z,8.90
2022-11-12T09:53:19.192Z,9.00
2022-11-12T09:58:40.080Z,9.20
2022-11-12T10:04:13.006Z,9.30
2022-11-12T10:09:57.415Z,9.50
2022-11-12T10:16:09.272Z,9.50
2022-11-12T10:21:54.238Z,9.80
2022-11-12T10:27:20.815Z,10.00
2022-11-12T10:32:45.017Z,10.30
2022-11-12T10:38:12.481Z,10.50
2022-11-12T10:43:33.306Z,10.50
2022-11-12T10:49:02.573Z,10.60
2022-11-12T10:54:36.044Z,10.70
2022-11-12T11:00:18.831Z,10.80
2022-11-12T11:05:51.930Z,10.80
2022-11-12T11:11:24.557Z,10.90
2022-11-12T11:16:57.878Z,10.90
2022-11-12T11:22:42.609Z,11.30
2022-11-12T11:28:30.257Z,11.40
2022-11-12T11:33:54.296Z,11.60
2022-11-12T11:39:36.487Z,11.60
2022-11-12T11:45:16.955Z,11.80
2022-11-12T11:50:53.468Z,12.10
2022-11-12T11:56:17.477Z,12.20
2022-11-12T12:01:50.328Z,12.50
2022-11-12T12:07:35.273Z,12.70
2022-11-12T12:13:28.171Z,12.90
2022-11-12T12:19:13.380Z,13.00
2022-11-12T12:24:53.840Z,13.00
2022-11-12T12:30:20.017Z,13.10
2022-11-12T12:35:56.753Z,13.40
2022-11-12T12:41:41.907Z,13.70
2022-11-12T12:47:03.131Z,13.70
2022-11-12T12:52:24.514Z,13.60
2022-11-12T12:57:45.361Z,13.80
2022-11-12T13:03:07.056Z,13.80
2022-11-12T13:08:34.522Z,13.60
2022-11-12T13:13:55.676Z,13.80
2022-11-12T13:19:28.059Z,13.90
2022-11-12T13:25:05.426Z,14.10
2022-11-12T13:30:26.569Z,14.30
2022-11-12T13:35:47.596Z,14.10
2022-11-12T13:41:19.455Z,14.10
2022-11-12T13:46:40.817Z,14.00
2022-11-12T13:52:04.828Z,13.90
2022-11-12T13:57:28.264Z,13.90
2022-11-12T14:03:04.167Z,13.80
2022-11-12T14:08:55.790Z,13.80
2022-11-12T14:14:22.499Z,13.80
2022-11-12T14:19:58.299Z,13.90
2022-11-12T14:25:20.908Z,13.80
2022-11-12T14:30:45.028Z,13.70
2022-11-12T14:36:10.650Z,13.80
2022-11-12T14:41:38.146Z,13.80
2022-11-12T14:47:00.243Z,13.90
2022-11-12T14:52:28.749Z,13.80
2022-11-12T14:57:49.577Z,13.70
2022-11-12T15:03:23.238Z,13.60
2022-11-12T15:08:44.207Z,13.50
2022-11-12T15:14:05.616Z,13.50
2022-11-12T15:19:28.613Z,13.30
2022-11-12T15:24:49.696Z,13.40
2022-11-12T15:30:23.483Z,13.60
2022-11-12T15:35:45.098Z,13.40
2022-11-12T15:41:06.704Z,13.40
2022-11-12T15:46:27.854Z,13.00
2022-11-12T15:51:48.643Z,13.10
2022-11-12T15:57:16.564Z,13.40
2022-11-12T16:07:58.642Z,13.10
2022-11-12T16:13:26.099Z,13.10
2022-11-12T16:18:46.785Z,13.30
2022-11-12T16:24:07.928Z,13.20
2022-11-12T16:29:29.022Z,13.10
2022-11-12T16:34:50.008Z,12.80
2022-11-12T16:40:19.735Z,12.50
2022-11-12T16:45:42.758Z,12.60
2022-11-12T16:51:03.388Z,12.40
2022-11-12T16:56:24.174Z,12.50
2022-11-12T17:01:44.930Z,12.60
2022-11-12T17:07:06.347Z,12.70
2022-11-12T17:12:27.184Z,12.60
2022-11-12T17:17:47.825Z,12.60
2022-11-12T17:23:08.789Z,12.80
2022-11-12T17:28:30.232Z,12.90
2022-11-12T17:33:52.841Z,12.60
2022-11-12T17:39:13.823Z,12.20
2022-11-12T17:44:34.667Z,12.00
2022-11-12T17:49:55.340Z,12.20
2022-11-12T17:55:16.127Z,12.10
2022-11-12T18:00:38.452Z,12.00
2022-11-12T18:06:00.054Z,12.10
2022-11-12T18:11:22.125Z,11.90
2022-11-12T18:16:42.937Z,11.80
2022-11-12T18:22:04.256Z,11.50
2022-11-12T18:27:25.221Z,11.30
2022-11-12T18:32:45.918Z,11.30
2022-11-12T18:38:07.498Z,11.20
2022-11-12T18:43:28.788Z,11.00
2022-11-12T18:48:50.661Z,11.00
2022-11-12T18:54:11.399Z,10.90
2022-11-12T18:59:32.547Z,10.70
2022-11-12T19:04:53.233Z,10.60
2022-11-12T19:10:15.201Z,10.70
2022-11-12T19:15:36.262Z,10.90
2022-11-12T19:21:18.673Z,10.90
2022-11-12T19:26:39.563Z,10.70
2022-11-12T19:32:00.473Z,10.70
2022-11-12T19:37:36.769Z,10.60
2022-11-12T19:42:57.975Z,10.70
2022-11-12T19:48:18.949Z,10.60
2022-11-12T19:53:46.789Z,10.40
2022-11-12T19:59:08.033Z,10.40
2022-11-12T20:04:28.973Z,10.50
2022-11-12T20:09:49.747Z,10.60
2022-11-12T20:15:11.569Z,10.70
2022-11-12T20:20:32.605Z,10.70
2022-11-12T20:25:53.778Z,10.60
2022-11-12T20:31:22.798Z,10.80
2022-11-12T20:36:43.719Z,10.90
2022-11-12T20:42:04.573Z,10.80
2022-11-12T20:47:25.700Z,10.90
2022-11-12T20:52:46.642Z,11.00
2022-11-12T20:58:07.332Z,11.20
2022-11-12T21:03:28.306Z,11.60
2022-11-12T21:08:49.807Z,11.80
2022-11-12T21:14:11.027Z,12.00
2022-11-12T21:19:31.751Z,11.30
2022-11-12T21:24:52.708Z,11.10
2022-11-12T21:30:13.918Z,10.90
2022-11-12T21:35:34.828Z,10.70
2022-11-12T21:41:11.091Z,10.60
2022-11-12T21:46:32.490Z,10.70
2022-11-12T21:51:53.281Z,10.90
2022-11-12T21:57:18.645Z,11.10
2022-11-12T22:02:39.832Z,10.80
2022-11-12T22:08:00.592Z,10.90
2022-11-12T22:13:26.970Z,11.00
2022-11-12T22:18:51.848Z,10.90
2022-11-12T22:24:12.652Z,10.40
2022-11-12T22:29:33.276Z,10.30
2022-11-12T22:34:53.916Z,10.30
2022-11-12T22:40:14.900Z,10.00
2022-11-12T22:45:36.009Z,9.90
2022-11-12T22:51:05.046Z,9.90
2022-11-12T22:56:26.696Z,9.50
2022-11-12T23:01:47.630Z,9.50
2022-11-12T23:07:08.519Z,9.60
2022-11-12T23:12:30.228Z,9.70
2022-11-12T23:17:50.935Z,9.80
2022-11-12T23:23:11.544Z,9.80
2022-11-12T23:28:33.878Z,9.90
2022-11-12T23:33:57.065Z,10.00
2022-11-12T23:39:18.029Z,10.50
2022-11-12T23:44:39.461Z,10.80
2022-11-12T23:50:00.210Z,10.90
2022-11-12T23:55:21.181Z,11.00
